2AR4 weather

Jaynes Field
Trumann, Arkansas, United States

Public forecast

Using degrees Fahrenheit for public forecast. Weather courtesy of forecast.io.

METAR (pilot weather report)

Closest report is Jonesboro Municipal Airport, 11.3 nm (20.9 km) NNW. Retrieved 2019/05/24 17:53 UTC (53 minutes ago):

KJBR 241753Z AUTO 21009KT 10SM CLR 32/20 A3012 RMK AO2 SLP196 T03170200 10317 20211 56004

TAF (pilot weather forecast)

Closest forecast is Jonesboro Municipal Airport, 11.3 nm (20.9 km) NNW. Retrieved 2019/05/24 18:48 UTC (0 seconds ago):

TAF KJBR 241746Z 2418/2518 21011G18KT P6SM FEW050 SCT250 FM250200 19004KT P6SM SKC FM251500 23012G18KT P6SM FEW040 SCT250